createdAt,value
2023-03-08T00:00:51.013Z,0.93
2023-03-08T00:03:22.528Z,0.77
2023-03-08T00:05:51.825Z,1.52
2023-03-08T00:08:21.997Z,1.02
2023-03-08T00:10:51.269Z,1.00
2023-03-08T00:13:21.459Z,0.80
2023-03-08T00:15:51.459Z,1.00
2023-03-08T00:18:23.098Z,1.00
2023-03-08T00:21:01.401Z,0.45
2023-03-08T00:23:31.136Z,1.80
2023-03-08T00:26:00.661Z,0.52
2023-03-08T00:28:31.217Z,1.40
2023-03-08T00:31:01.517Z,0.80
2023-03-08T00:33:34.202Z,0.90
2023-03-08T00:36:05.308Z,0.98
2023-03-08T00:38:36.898Z,1.40
2023-03-08T00:41:06.790Z,0.45
2023-03-08T00:43:37.609Z,0.68
2023-03-08T00:46:07.858Z,0.63
2023-03-08T00:48:39.575Z,1.05
2023-03-08T00:51:09.452Z,0.73
2023-03-08T00:53:39.334Z,0.80
2023-03-08T00:56:09.109Z,0.50
2023-03-08T00:58:39.965Z,0.80
2023-03-08T01:01:10.286Z,1.13
2023-03-08T01:06:13.056Z,0.60
2023-03-08T01:08:42.755Z,0.52
2023-03-08T01:11:19.148Z,0.60
2023-03-08T01:13:49.524Z,0.70
2023-03-08T01:16:21.157Z,0.82
2023-03-08T01:18:52.833Z,0.90
2023-03-08T01:23:52.538Z,0.70
2023-03-08T01:26:24.368Z,1.20
2023-03-08T01:28:54.339Z,0.60
2023-03-08T01:31:25.290Z,0.70
2023-03-08T01:33:57.419Z,0.47
2023-03-08T01:36:28.904Z,0.57
2023-03-08T01:39:01.577Z,0.68
2023-03-08T01:41:32.572Z,0.55
2023-03-08T01:44:03.092Z,0.47
2023-03-08T01:46:33.683Z,0.68
2023-03-08T01:51:41.116Z,0.57
2023-03-08T01:54:15.402Z,0.55
2023-03-08T01:56:46.851Z,0.45
2023-03-08T01:59:17.238Z,0.70
2023-03-08T02:01:47.188Z,0.40
2023-03-08T02:04:18.919Z,0.80
2023-03-08T02:06:48.288Z,1.25
2023-03-08T02:09:18.012Z,0.98
2023-03-08T02:11:49.594Z,0.32
2023-03-08T02:14:19.345Z,0.47
2023-03-08T02:16:48.629Z,1.05
2023-03-08T02:19:25.201Z,0.20
2023-03-08T02:21:54.469Z,0.63
2023-03-08T02:24:26.897Z,0.40
2023-03-08T02:27:02.752Z,0.40
2023-03-08T02:29:33.220Z,0.68
2023-03-08T02:32:02.603Z,0.80
2023-03-08T02:34:32.412Z,0.38
2023-03-08T02:37:01.852Z,0.50
2023-03-08T02:39:33.408Z,0.20
2023-03-08T02:42:02.687Z,0.52
2023-03-08T02:44:32.329Z,0.75
2023-03-08T02:47:01.616Z,0.32
2023-03-08T02:49:31.600Z,0.65
2023-03-08T02:52:00.934Z,0.50
2023-03-08T02:54:32.238Z,0.40
2023-03-08T02:57:01.806Z,0.40
2023-03-08T02:59:32.341Z,0.40
2023-03-08T03:02:01.811Z,0.70
2023-03-08T03:04:32.503Z,0.50
2023-03-08T03:07:02.471Z,0.60
2023-03-08T03:09:35.951Z,0.40
2023-03-08T03:12:05.971Z,0.20
2023-03-08T03:14:35.748Z,0.22
2023-03-08T03:17:05.156Z,0.20
2023-03-08T03:19:34.948Z,0.30
2023-03-08T03:22:04.257Z,0.68
2023-03-08T03:24:37.508Z,0.55
2023-03-08T03:27:07.732Z,0.65
2023-03-08T03:29:39.802Z,0.55
2023-03-08T03:32:09.772Z,0.30
2023-03-08T03:34:39.635Z,0.68
2023-03-08T03:37:08.954Z,0.57
2023-03-08T03:39:40.846Z,0.52
2023-03-08T03:42:10.671Z,0.75
2023-03-08T03:44:40.520Z,0.50
2023-03-08T03:47:10.296Z,0.40
2023-03-08T03:49:40.330Z,0.40
2023-03-08T03:52:09.898Z,0.30
2023-03-08T03:54:41.438Z,0.80
2023-03-08T03:57:11.078Z,0.20
2023-03-08T03:59:41.071Z,0.30
2023-03-08T04:02:11.339Z,0.57
2023-03-08T04:04:41.335Z,0.55
2023-03-08T04:07:12.143Z,0.43
2023-03-08T04:09:43.409Z,0.55
2023-03-08T04:12:12.763Z,0.40
2023-03-08T04:14:42.660Z,1.02
2023-03-08T04:17:13.244Z,0.30
2023-03-08T04:22:12.625Z,0.30
2023-03-08T04:24:43.725Z,1.30
2023-03-08T04:27:13.150Z,0.45
2023-03-08T04:29:42.833Z,0.40
2023-03-08T04:32:12.249Z,0.60
2023-03-08T04:34:43.224Z,0.52
2023-03-08T04:37:14.002Z,0.30
2023-03-08T04:42:14.449Z,0.90
2023-03-08T04:44:44.188Z,0.90
2023-03-08T04:47:13.441Z,0.65
2023-03-08T04:49:43.086Z,0.45
2023-03-08T04:52:12.409Z,0.22
2023-03-08T04:54:42.088Z,0.47
2023-03-08T04:57:12.938Z,0.68
2023-03-08T04:59:44.900Z,0.40
2023-03-08T05:02:14.769Z,1.10
2023-03-08T05:04:44.817Z,0.55
2023-03-08T05:07:14.418Z,0.40
2023-03-08T05:09:44.518Z,0.73
2023-03-08T05:12:15.411Z,0.50
2023-03-08T05:14:45.722Z,0.95
2023-03-08T05:17:15.023Z,0.50
2023-03-08T05:19:44.932Z,0.60
2023-03-08T05:22:14.224Z,0.65
2023-03-08T05:24:43.919Z,0.50
2023-03-08T05:27:15.091Z,0.80
2023-03-08T05:29:44.912Z,0.47
2023-03-08T05:32:14.955Z,0.60
2023-03-08T05:34:44.843Z,1.10
2023-03-08T05:37:14.186Z,0.50
2023-03-08T05:39:44.248Z,1.55
2023-03-08T05:42:15.017Z,0.57
2023-03-08T05:44:45.718Z,0.95
2023-03-08T05:47:15.334Z,0.70
2023-03-08T05:49:45.032Z,0.77
2023-03-08T05:52:14.516Z,1.73
2023-03-08T05:54:44.379Z,0.32
2023-03-08T05:57:15.155Z,0.80
2023-03-08T05:59:44.995Z,0.57
2023-03-08T06:02:14.350Z,0.82
2023-03-08T06:04:44.569Z,1.13
2023-03-08T06:07:14.152Z,0.88
2023-03-08T06:09:43.818Z,1.25
2023-03-08T06:12:14.741Z,0.85
2023-03-08T06:14:45.032Z,0.60
2023-03-08T06:17:15.159Z,0.30
2023-03-08T06:19:44.926Z,0.80
2023-03-08T06:22:14.367Z,0.82
2023-03-08T06:24:44.142Z,1.00
2023-03-08T06:27:14.851Z,1.00
2023-03-08T06:32:13.478Z,0.70
2023-03-08T06:34:43.436Z,0.88
2023-03-08T06:37:12.820Z,0.52
2023-03-08T06:39:42.535Z,0.98
2023-03-08T06:42:11.980Z,0.88
2023-03-08T06:44:43.099Z,0.75
2023-03-08T06:47:12.619Z,1.15
2023-03-08T06:49:42.594Z,1.17
2023-03-08T06:52:11.897Z,0.90
2023-03-08T06:54:42.129Z,1.52
2023-03-08T06:57:11.473Z,0.85
2023-03-08T06:59:42.588Z,1.58
2023-03-08T07:02:12.469Z,1.17
2023-03-08T07:04:43.279Z,0.90
2023-03-08T07:07:13.013Z,0.52
2023-03-08T07:09:43.215Z,0.85
2023-03-08T07:12:12.602Z,0.90
2023-03-08T07:14:43.875Z,1.23
2023-03-08T07:17:13.180Z,0.93
2023-03-08T07:19:42.826Z,1.20
2023-03-08T07:22:13.184Z,0.70
2023-03-08T07:24:43.005Z,0.77
2023-03-08T07:27:12.597Z,2.05
2023-03-08T07:29:44.168Z,1.60
2023-03-08T07:32:13.629Z,0.82
2023-03-08T07:34:43.832Z,1.05
2023-03-08T07:37:14.498Z,1.30
2023-03-08T07:42:13.234Z,1.60
2023-03-08T07:44:44.552Z,1.23
2023-03-08T07:47:13.916Z,1.60
2023-03-08T07:49:44.026Z,2.72
2023-03-08T07:52:13.415Z,3.95
2023-03-08T07:54:44.048Z,1.70
2023-03-08T07:57:15.742Z,2.30
2023-03-08T07:59:46.835Z,1.67
2023-03-08T08:02:17.010Z,2.08
2023-03-08T08:04:46.836Z,1.60
2023-03-08T08:07:17.950Z,1.40
2023-03-08T08:09:47.876Z,1.38
2023-03-08T08:12:17.278Z,0.95
2023-03-08T08:14:48.403Z,1.83
2023-03-08T08:17:17.664Z,1.38
2023-03-08T08:19:47.619Z,1.15
2023-03-08T08:22:17.050Z,1.52
2023-03-08T08:24:47.097Z,1.90
2023-03-08T08:27:17.153Z,1.45
2023-03-08T08:29:50.029Z,0.80
2023-03-08T08:32:19.509Z,1.48
2023-03-08T08:34:49.881Z,3.40
2023-03-08T08:37:19.345Z,0.47
2023-03-08T08:39:48.967Z,1.33
2023-03-08T08:42:18.533Z,0.95
2023-03-08T08:44:49.642Z,0.57
2023-03-08T08:47:18.955Z,0.57
2023-03-08T08:49:48.899Z,0.75
2023-03-08T08:52:18.268Z,0.52
2023-03-08T08:54:47.973Z,0.90
2023-03-08T08:57:17.294Z,0.28
2023-03-08T08:59:48.121Z,0.47
2023-03-08T09:02:19.228Z,0.73
2023-03-08T09:04:49.433Z,0.70
2023-03-08T09:07:18.855Z,0.43
2023-03-08T09:09:48.564Z,0.50
2023-03-08T09:12:17.879Z,0.40
2023-03-08T09:14:48.016Z,1.17
2023-03-08T09:17:19.040Z,0.40
2023-03-08T09:19:48.891Z,0.30
2023-03-08T09:22:18.725Z,0.30
2023-03-08T09:24:51.182Z,0.20
2023-03-08T09:27:20.827Z,0.32
2023-03-08T09:29:50.661Z,0.90
2023-03-08T09:32:21.815Z,0.30
2023-03-08T09:34:51.543Z,0.40
2023-03-08T09:37:20.856Z,1.15
2023-03-08T09:39:53.084Z,0.35
2023-03-08T09:42:24.590Z,0.68
2023-03-08T09:45:07.609Z,1.20
2023-03-08T09:47:57.045Z,0.28
2023-03-08T09:50:43.954Z,1.02
2023-03-08T09:53:22.628Z,0.82
2023-03-08T09:55:57.229Z,0.47
2023-03-08T09:58:34.601Z,0.35
2023-03-08T10:01:15.206Z,0.38
2023-03-08T10:04:18.106Z,0.57
2023-03-08T10:06:58.184Z,1.10
2023-03-08T10:09:33.354Z,0.30
2023-03-08T10:12:15.788Z,0.55
2023-03-08T10:14:49.481Z,0.20
2023-03-08T10:17:24.056Z,0.50
2023-03-08T10:20:00.188Z,0.38
2023-03-08T10:22:32.864Z,0.70
2023-03-08T10:25:05.531Z,0.20
2023-03-08T10:27:37.102Z,0.40
2023-03-08T10:30:15.393Z,0.47
2023-03-08T10:32:46.473Z,0.38
2023-03-08T10:35:18.574Z,0.20
2023-03-08T10:37:53.027Z,0.25
2023-03-08T10:40:23.615Z,0.43
2023-03-08T10:42:57.787Z,0.20
2023-03-08T10:45:28.237Z,0.22
2023-03-08T10:48:00.146Z,0.38
2023-03-08T10:50:32.417Z,0.20
2023-03-08T10:53:11.690Z,0.30
2023-03-08T10:55:46.160Z,0.32
2023-03-08T10:58:40.269Z,0.20
2023-03-08T11:01:25.869Z,0.32
2023-03-08T11:04:03.687Z,0.32
2023-03-08T11:06:36.633Z,0.30
2023-03-08T11:09:21.362Z,0.43
2023-03-08T11:11:50.676Z,0.60
2023-03-08T11:14:20.647Z,0.43
2023-03-08T11:17:10.263Z,0.75
2023-03-08T11:20:00.318Z,0.40
2023-03-08T11:22:40.256Z,0.82
2023-03-08T11:25:20.014Z,0.52
2023-03-08T11:28:02.662Z,0.73
2023-03-08T11:30:45.162Z,0.57
2023-03-08T11:33:33.239Z,1.15
2023-03-08T11:36:12.039Z,1.15
2023-03-08T11:38:44.692Z,0.57
2023-03-08T11:41:23.306Z,0.50
2023-03-08T11:44:08.710Z,0.77
2023-03-08T11:46:50.788Z,0.98
2023-03-08T11:49:34.599Z,0.40
2023-03-08T11:52:15.732Z,1.13
2023-03-08T11:54:57.129Z,1.38
2023-03-08T11:57:30.247Z,0.30
2023-03-08T12:00:10.147Z,0.85
2023-03-08T12:02:44.405Z,0.60
2023-03-08T12:05:18.700Z,0.90
2023-03-08T12:07:53.025Z,0.40
2023-03-08T12:10:27.161Z,1.00
2023-03-08T12:13:00.909Z,0.75
2023-03-08T12:15:35.275Z,0.70
2023-03-08T12:18:17.654Z,0.80
2023-03-08T12:20:47.621Z,0.50
2023-03-08T12:23:25.496Z,0.47
2023-03-08T12:26:02.597Z,0.30
2023-03-08T12:28:36.293Z,0.30
2023-03-08T12:31:27.537Z,0.50
2023-03-08T12:34:00.215Z,0.60
2023-03-08T12:36:40.888Z,0.45
2023-03-08T12:41:42.839Z,0.63
2023-03-08T12:44:25.521Z,0.90
2023-03-08T12:47:03.315Z,0.75
2023-03-08T12:49:37.042Z,1.30
2023-03-08T12:52:27.653Z,0.93
2023-03-08T12:55:03.484Z,0.50
2023-03-08T12:57:43.094Z,0.50
2023-03-08T13:00:31.628Z,0.70
2023-03-08T13:03:04.778Z,0.30
2023-03-08T13:05:36.846Z,0.40
2023-03-08T13:08:23.262Z,0.60
2023-03-08T13:11:07.758Z,0.20
2023-03-08T13:13:51.863Z,0.65
2023-03-08T13:16:33.879Z,0.85
2023-03-08T13:19:15.422Z,0.30
2023-03-08T13:21:51.013Z,0.60
2023-03-08T13:24:31.716Z,1.77
2023-03-08T13:27:19.545Z,0.47
2023-03-08T13:29:51.014Z,0.80
2023-03-08T13:32:22.542Z,0.60
2023-03-08T13:35:01.192Z,1.63
2023-03-08T13:37:32.600Z,0.70
2023-03-08T13:42:32.514Z,1.27
2023-03-08T13:45:19.477Z,0.70
2023-03-08T13:47:49.700Z,0.63
2023-03-08T13:50:22.008Z,0.30
2023-03-08T13:52:52.318Z,0.75
2023-03-08T13:55:27.234Z,0.80
2023-03-08T13:57:56.913Z,0.40
2023-03-08T14:00:31.560Z,0.50
2023-03-08T14:03:02.685Z,0.50
2023-03-08T14:05:35.249Z,0.73
2023-03-08T14:08:07.730Z,0.60
2023-03-08T14:10:43.503Z,0.90
2023-03-08T14:13:20.069Z,0.75
2023-03-08T14:15:56.053Z,0.63
2023-03-08T14:18:29.114Z,1.00
2023-03-08T14:21:03.972Z,1.77
2023-03-08T14:23:37.711Z,1.30
2023-03-08T14:26:07.459Z,1.65
2023-03-08T14:28:42.493Z,1.10
2023-03-08T14:31:28.541Z,1.52
2023-03-08T14:34:00.008Z,1.00
2023-03-08T14:36:31.266Z,1.08
2023-03-08T14:39:01.951Z,1.45
2023-03-08T14:41:37.492Z,1.00
2023-03-08T14:44:07.589Z,0.70
2023-03-08T14:46:38.542Z,0.90
2023-03-08T14:49:20.904Z,1.25
2023-03-08T14:51:50.696Z,0.55
2023-03-08T14:54:30.881Z,1.00
2023-03-08T14:57:01.123Z,0.90
2023-03-08T14:59:30.941Z,0.93
2023-03-08T15:02:01.857Z,1.15
2023-03-08T15:04:32.087Z,1.02
2023-03-08T15:07:02.155Z,0.80
2023-03-08T15:09:32.549Z,0.98
2023-03-08T15:12:02.004Z,1.20
2023-03-08T15:14:32.412Z,1.37
2023-03-08T15:17:03.795Z,1.27
2023-03-08T15:19:33.483Z,1.10
2023-03-08T15:22:03.321Z,1.67
2023-03-08T15:24:33.530Z,1.33
2023-03-08T15:27:02.936Z,0.98
2023-03-08T15:29:34.642Z,1.02
2023-03-08T15:32:05.508Z,1.02
2023-03-08T15:34:35.386Z,0.70
2023-03-08T15:37:05.099Z,0.70
2023-03-08T15:39:34.737Z,1.58
2023-03-08T15:42:04.600Z,1.60
2023-03-08T15:44:34.470Z,1.00
2023-03-08T15:47:05.303Z,1.60
2023-03-08T15:49:35.380Z,1.48
2023-03-08T15:52:05.890Z,1.52
2023-03-08T15:54:36.688Z,1.90
2023-03-08T15:57:06.281Z,1.48
2023-03-08T15:59:37.353Z,1.77
2023-03-08T16:02:08.876Z,1.57
2023-03-08T16:04:38.892Z,2.35
2023-03-08T16:07:08.453Z,1.52
2023-03-08T16:09:38.120Z,1.60
2023-03-08T16:12:08.021Z,1.67
2023-03-08T16:14:38.079Z,2.50
2023-03-08T16:17:09.944Z,1.88
2023-03-08T16:19:39.921Z,1.98
2023-03-08T16:22:09.231Z,1.88
2023-03-08T16:24:39.258Z,2.22
2023-03-08T16:27:08.742Z,1.95
2023-03-08T16:29:39.026Z,2.37
2023-03-08T16:32:11.619Z,3.75
2023-03-08T16:34:41.356Z,2.75
2023-03-08T16:37:10.737Z,2.78
2023-03-08T16:39:40.454Z,2.47
2023-03-08T16:42:13.543Z,3.50
2023-03-08T16:44:43.329Z,3.47
2023-03-08T16:47:14.078Z,2.17
2023-03-08T16:52:12.940Z,1.90
2023-03-08T16:54:42.684Z,1.75
2023-03-08T16:57:19.149Z,1.83
2023-03-08T16:59:49.598Z,2.55
2023-03-08T17:02:23.126Z,2.35
2023-03-08T17:04:53.055Z,1.73
2023-03-08T17:07:22.476Z,2.22
2023-03-08T17:09:52.418Z,2.15
2023-03-08T17:12:22.261Z,2.53
2023-03-08T17:14:52.644Z,2.70
2023-03-08T17:17:23.719Z,2.93
2023-03-08T17:19:54.313Z,3.60
2023-03-08T17:22:23.777Z,3.30
2023-03-08T17:24:53.438Z,5.18
2023-03-08T17:27:24.558Z,3.30
2023-03-08T17:29:54.758Z,3.47
2023-03-08T17:32:25.636Z,2.65
2023-03-08T17:34:56.224Z,2.97
2023-03-08T17:37:25.632Z,4.07
2023-03-08T17:39:55.366Z,3.83
2023-03-08T17:42:24.747Z,3.92
2023-03-08T17:44:54.706Z,3.72
2023-03-08T17:47:25.604Z,3.65
2023-03-08T17:49:55.282Z,3.22
2023-03-08T17:52:25.219Z,4.13
2023-03-08T17:54:55.713Z,3.30
2023-03-08T17:57:25.202Z,3.75
2023-03-08T17:59:56.276Z,4.30
2023-03-08T18:02:27.297Z,3.85
2023-03-08T18:04:57.034Z,4.32
2023-03-08T18:07:28.205Z,4.50
2023-03-08T18:09:58.429Z,4.07
2023-03-08T18:12:27.919Z,4.38
2023-03-08T18:14:57.842Z,4.07
2023-03-08T18:17:28.649Z,5.93
2023-03-08T18:19:58.451Z,5.03
2023-03-08T18:22:27.868Z,5.15
2023-03-08T18:24:58.137Z,5.65
2023-03-08T18:27:27.492Z,7.20
2023-03-08T18:29:57.369Z,8.30
2023-03-08T18:32:29.120Z,8.40
2023-03-08T18:34:59.095Z,8.05
2023-03-08T18:37:29.819Z,9.05
2023-03-08T18:40:00.293Z,10.77
2023-03-08T18:42:29.710Z,14.10
2023-03-08T18:44:59.564Z,13.60
2023-03-08T18:47:30.513Z,11.80
2023-03-08T18:50:00.681Z,12.32
2023-03-08T18:52:30.966Z,8.65
2023-03-08T18:57:30.378Z,8.48
2023-03-08T19:00:00.405Z,7.30
2023-03-08T19:02:31.692Z,7.68
2023-03-08T19:05:01.561Z,9.82
2023-03-08T19:07:31.070Z,10.45
2023-03-08T19:10:03.872Z,10.10
2023-03-08T19:12:34.069Z,15.13
2023-03-08T19:15:03.709Z,13.10
2023-03-08T19:17:34.984Z,14.98
2023-03-08T19:20:05.527Z,16.20
2023-03-08T19:22:34.844Z,16.55
2023-03-08T19:25:06.168Z,15.63
2023-03-08T19:27:36.309Z,12.88
2023-03-08T19:30:06.609Z,13.98
2023-03-08T19:32:37.951Z,14.57
2023-03-08T19:35:09.675Z,13.50
2023-03-08T19:37:39.061Z,13.27
2023-03-08T19:40:10.409Z,14.75
2023-03-08T19:42:40.326Z,14.32
2023-03-08T19:45:11.533Z,23.55
2023-03-08T19:47:44.747Z,21.73
2023-03-08T19:50:16.233Z,18.52
2023-03-08T19:52:45.758Z,15.32
2023-03-08T19:55:16.826Z,14.82
2023-03-08T19:57:46.150Z,14.35
2023-03-08T20:00:16.503Z,12.38
2023-03-08T20:02:47.400Z,11.55
2023-03-08T20:05:18.925Z,12.38
2023-03-08T20:10:19.402Z,11.30
2023-03-08T20:12:49.769Z,12.55
2023-03-08T20:15:19.671Z,11.02
2023-03-08T20:17:50.458Z,14.73
2023-03-08T20:20:20.848Z,12.82
2023-03-08T20:22:50.396Z,15.65
2023-03-08T20:25:20.318Z,15.63
2023-03-08T20:27:49.615Z,14.85
2023-03-08T20:30:22.330Z,13.40
2023-03-08T20:32:53.488Z,12.98
2023-03-08T20:35:24.074Z,14.68
2023-03-08T20:37:53.490Z,14.80
2023-03-08T20:40:24.021Z,18.90
2023-03-08T20:42:55.255Z,15.82
2023-03-08T20:45:26.062Z,17.63
2023-03-08T20:47:57.896Z,18.30
2023-03-08T20:50:29.279Z,18.60
2023-03-08T20:55:28.901Z,21.63
2023-03-08T20:57:58.457Z,19.27
2023-03-08T21:00:28.638Z,20.27
2023-03-08T21:03:00.414Z,18.00
2023-03-08T21:05:30.205Z,18.02
2023-03-08T21:07:59.752Z,18.25
2023-03-08T21:10:29.535Z,17.65
2023-03-08T21:12:59.027Z,17.77
2023-03-08T21:15:28.780Z,16.65
2023-03-08T21:17:59.661Z,17.77
2023-03-08T21:20:29.753Z,16.42
2023-03-08T21:22:59.259Z,16.98
2023-03-08T21:25:29.690Z,15.05
2023-03-08T21:27:59.578Z,14.30
2023-03-08T21:30:31.029Z,15.90
2023-03-08T21:35:31.556Z,14.52
2023-03-08T21:38:01.295Z,13.80
2023-03-08T21:40:31.026Z,15.27
2023-03-08T21:43:00.779Z,15.02
2023-03-08T21:45:30.827Z,13.43
2023-03-08T21:48:01.812Z,12.75
2023-03-08T21:50:31.559Z,14.23
2023-03-08T21:53:01.172Z,12.70
2023-03-08T21:55:31.152Z,13.45
2023-03-08T21:58:00.679Z,12.20
2023-03-08T22:00:30.586Z,11.45
2023-03-08T22:03:01.662Z,11.02
2023-03-08T22:05:32.206Z,10.93
2023-03-08T22:08:01.565Z,10.40
2023-03-08T22:10:31.278Z,11.13
2023-03-08T22:13:00.957Z,11.57
2023-03-08T22:15:31.589Z,10.85
2023-03-08T22:18:02.600Z,12.63
2023-03-08T22:20:32.362Z,15.35
2023-03-08T22:23:01.709Z,13.50
2023-03-08T22:25:31.932Z,12.82
2023-03-08T22:28:01.521Z,13.75
2023-03-08T22:30:31.325Z,12.73
2023-03-08T22:33:02.139Z,11.20
2023-03-08T22:35:32.060Z,14.45
2023-03-08T22:38:01.427Z,13.38
2023-03-08T22:40:31.317Z,10.25
2023-03-08T22:43:00.858Z,11.70
2023-03-08T22:45:30.616Z,10.18
2023-03-08T22:48:00.903Z,12.52
2023-03-08T22:50:32.275Z,12.68
2023-03-08T22:55:31.703Z,12.40
2023-03-08T22:58:01.365Z,10.57
2023-03-08T23:00:31.086Z,11.30
2023-03-08T23:03:01.138Z,9.50
2023-03-08T23:05:32.945Z,10.98
2023-03-08T23:08:02.272Z,11.05
2023-03-08T23:10:32.182Z,10.68
2023-03-08T23:13:01.824Z,11.30
2023-03-08T23:15:32.139Z,13.07
2023-03-08T23:18:02.979Z,12.90
2023-03-08T23:20:34.327Z,13.05
2023-03-08T23:25:33.212Z,10.50
2023-03-08T23:28:02.911Z,11.35
2023-03-08T23:30:32.853Z,11.57
2023-03-08T23:33:02.694Z,11.38
2023-03-08T23:35:34.794Z,10.63
2023-03-08T23:38:04.316Z,11.48
2023-03-08T23:40:34.200Z,13.00
2023-03-08T23:43:03.515Z,11.60
2023-03-08T23:45:34.445Z,12.77
2023-03-08T23:48:03.884Z,12.60
2023-03-08T23:50:35.158Z,13.20
2023-03-08T23:53:04.586Z,11.68
2023-03-08T23:55:38.898Z,14.63
2023-03-08T23:58:08.608Z,14.60
